<?xml version="1.0" encoding="UTF-8" standalone="no" ?><gpx xmlns="http://www.topografix.com/GPX/1/1" xmlns:gpxx="http://www.garmin.com/xmlschemas/GpxExtensions/v3" xmlns:gpxtrkx="http://www.garmin.com/xmlschemas/TrackStatsExtension/v1" xmlns:wptx1="http://www.garmin.com/xmlschemas/WaypointExtension/v1" xmlns:gpxtpx="http://www.garmin.com/xmlschemas/TrackPointExtension/v1" creator="Oregon 700" version="1.1" xmlns:xsi="http://www.w3.org/2001/XMLSchema-instance" xsi:schemaLocation="http://www.topografix.com/GPX/1/1 http://www.topografix.com/GPX/1/1/gpx.xsd http://www.garmin.com/xmlschemas/GpxExtensions/v3 http://www8.garmin.com/xmlschemas/GpxExtensionsv3.xsd http://www.garmin.com/xmlschemas/TrackStatsExtension/v1 http://www8.garmin.com/xmlschemas/TrackStatsExtension.xsd http://www.garmin.com/xmlschemas/WaypointExtension/v1 http://www8.garmin.com/xmlschemas/WaypointExtensionv1.xsd http://www.garmin.com/xmlschemas/TrackPointExtension/v1 http://www.garmin.com/xmlschemas/TrackPointExtensionv1.xsd"><metadata><link href="http://www.garmin.com"><text>Garmin International</text></link><time>2023-12-06T15:31:29Z</time></metadata><trk><name>Current Track: 06 DEC 2023 10:05</name><extensions><gpxx:TrackExtension><gpxx:DisplayColor>Cyan</gpxx:DisplayColor></gpxx:TrackExtension><gpxtrkx:TrackStatsExtension><gpxtrkx:Distance>5320.000</gpxtrkx:Distance><gpxtrkx:TimerTime>7116</gpxtrkx:TimerTime><gpxtrkx:TotalElapsedTime>19586</gpxtrkx:TotalElapsedTime><gpxtrkx:MovingTime>6066</gpxtrkx:MovingTime><gpxtrkx:StoppedTime>1051</gpxtrkx:StoppedTime><gpxtrkx:MovingSpeed>0.877</gpxtrkx:MovingSpeed><gpxtrkx:MaxSpeed>2.044</gpxtrkx:MaxSpeed><gpxtrkx:MaxElevation>237.782</gpxtrkx:MaxElevation><gpxtrkx:MinElevation>170.826</gpxtrkx:MinElevation><gpxtrkx:Ascent>113.000</gpxtrkx:Ascent><gpxtrkx:Descent>104.535</gpxtrkx:Descent><gpxtrkx:AvgAscentRate>0.048</gpxtrkx:AvgAscentRate><gpxtrkx:MaxAscentRate>0.084</gpxtrkx:MaxAscentRate><gpxtrkx:AvgDescentRate>0.051</gpxtrkx:AvgDescentRate><gpxtrkx:MaxDescentRate>-0.131</gpxtrkx:MaxDescentRate><gpxtrkx:Calories>270</gpxtrkx:Calories></gpxtrkx:TrackStatsExtension></extensions><trkseg><trkpt lat="51.9110216573" lon="-1.9870180730"><ele>185.68</ele><time>2023-12-06T10:05:03Z</time></trkpt><trkpt lat="51.9110386726" lon="-1.9870407041"><ele>182.34</ele><time>2023-12-06T10:05:18Z</time></trkpt><trkpt lat="51.9110462163" lon="-1.9870434701"><ele>186.44</ele><time>2023-12-06T10:05:23Z</time></trkpt><trkpt lat="51.9110517483" lon="-1.9870403688"><ele>187.41</ele><time>2023-12-06T10:05:25Z</time></trkpt><trkpt lat="51.9111279398" lon="-1.9870635867"><ele>184.27</ele><time>2023-12-06T10:05:38Z</time></trkpt><trkpt lat="51.9112085737" lon="-1.9871025626"><ele>187.50</ele><time>2023-12-06T10:05:48Z</time></trkpt><trkpt lat="51.9111877028" lon="-1.9871065859"><ele>184.46</ele><time>2023-12-06T10:06:06Z</time></trkpt><trkpt lat="51.9111883733" lon="-1.9871083461"><ele>183.46</ele><time>2023-12-06T10:06:08Z</time></trkpt><trkpt lat="51.9111873675" lon="-1.9871097710"><ele>186.41</ele><time>2023-12-06T10:06:13Z</time></trkpt><trkpt lat="51.9112826698" lon="-1.9871671870"><ele>185.04</ele><time>2023-12-06T10:06:33Z</time></trkpt><trkpt lat="51.9114019442" lon="-1.9872727990"><ele>185.62</ele><time>2023-12-06T10:06:50Z</time></trkpt><trkpt lat="51.9115619548" lon="-1.9874241762"><ele>185.78</ele><time>2023-12-06T10:07:10Z</time></trkpt><trkpt lat="51.9115568418" lon="-1.9874272775"><ele>185.95</ele><time>2023-12-06T10:07:15Z</time></trkpt><trkpt lat="51.9115035329" lon="-1.9874062389"><ele>186.02</ele><time>2023-12-06T10:07:19Z</time></trkpt><trkpt lat="51.9113214780" lon="-1.9872935023"><ele>185.32</ele><time>2023-12-06T10:07:31Z</time></trkpt><trkpt lat="51.9112196378" lon="-1.9871329051"><ele>184.14</ele><time>2023-12-06T10:07:45Z</time></trkpt><trkpt lat="51.9112032093" lon="-1.9870980363"><ele>184.36</ele><time>2023-12-06T10:07:51Z</time></trkpt><trkpt lat="51.9112604577" lon="-1.9871701207"><ele>184.50</ele><time>2023-12-06T10:07:59Z</time></trkpt><trkpt lat="51.9115094841" lon="-1.9873819314"><ele>185.07</ele><time>2023-12-06T10:08:16Z</time></trkpt><trkpt lat="51.9116980769" lon="-1.9875217415"><ele>185.68</ele><time>2023-12-06T10:08:33Z</time></trkpt><trkpt lat="51.9117506314" lon="-1.9876379985"><ele>186.34</ele><time>2023-12-06T10:08:46Z</time></trkpt><trkpt lat="51.9118769467" lon="-1.9878915511"><ele>186.99</ele><time>2023-12-06T10:09:06Z</time></trkpt><trkpt lat="51.9120065309" lon="-1.9881038647"><ele>187.90</ele><time>2023-12-06T10:09:28Z</time></trkpt><trkpt lat="51.9121238776" lon="-1.9883225486"><ele>188.99</ele><time>2023-12-06T10:09:52Z</time></trkpt><trkpt lat="51.9122264720" lon="-1.9885351136"><ele>189.78</ele><time>2023-12-06T10:10:12Z</time></trkpt><trkpt lat="51.9123379514" lon="-1.9887351897"><ele>190.71</ele><time>2023-12-06T10:10:32Z</time></trkpt><trkpt lat="51.9124415517" lon="-1.9889309909"><ele>191.67</ele><time>2023-12-06T10:10:53Z</time></trkpt><trkpt lat="51.9125358481" lon="-1.9891233556"><ele>192.60</ele><time>2023-12-06T10:11:12Z</time></trkpt><trkpt lat="51.9126310665" lon="-1.9893255271"><ele>193.23</ele><time>2023-12-06T10:11:31Z</time></trkpt><trkpt lat="51.9127506763" lon="-1.9895387627"><ele>194.08</ele><time>2023-12-06T10:11:51Z</time></trkpt><trkpt lat="51.9128595572" lon="-1.9897390902"><ele>194.85</ele><time>2023-12-06T10:12:12Z</time></trkpt><trkpt lat="51.9129696954" lon="-1.9899487216"><ele>195.57</ele><time>2023-12-06T10:12:32Z</time></trkpt><trkpt lat="51.9131021295" lon="-1.9901783857"><ele>196.48</ele><time>2023-12-06T10:12:53Z</time></trkpt><trkpt lat="51.9132196438" lon="-1.9904207904"><ele>197.33</ele><time>2023-12-06T10:13:14Z</time></trkpt><trkpt lat="51.9133726135" lon="-1.9906958845"><ele>198.04</ele><time>2023-12-06T10:13:38Z</time></trkpt><trkpt lat="51.9134833384" lon="-1.9908998162"><ele>198.97</ele><time>2023-12-06T10:13:59Z</time></trkpt><trkpt lat="51.9135581050" lon="-1.9911532849"><ele>199.72</ele><time>2023-12-06T10:14:19Z</time></trkpt><trkpt lat="51.9135770481" lon="-1.9913271256"><ele>200.30</ele><time>2023-12-06T10:14:33Z</time></trkpt><trkpt lat="51.9135668222" lon="-1.9915194064"><ele>200.60</ele><time>2023-12-06T10:14:49Z</time></trkpt><trkpt lat="51.9135503098" lon="-1.9915744755"><ele>200.64</ele><time>2023-12-06T10:15:11Z</time></trkpt><trkpt lat="51.9135714322" lon="-1.9916157145"><ele>200.56</ele><time>2023-12-06T10:15:32Z</time></trkpt><trkpt lat="51.9135322887" lon="-1.9918842707"><ele>200.73</ele><time>2023-12-06T10:15:55Z</time></trkpt><trkpt lat="51.9135060534" lon="-1.9919300359"><ele>200.73</ele><time>2023-12-06T10:16:16Z</time></trkpt><trkpt lat="51.9134924747" lon="-1.9920597039"><ele>200.73</ele><time>2023-12-06T10:16:35Z</time></trkpt><trkpt lat="51.9134732801" lon="-1.9922705088"><ele>200.73</ele><time>2023-12-06T10:16:57Z</time></trkpt><trkpt lat="51.9134123437" lon="-1.9925681502"><ele>200.73</ele><time>2023-12-06T10:17:23Z</time></trkpt><trkpt lat="51.9133687578" lon="-1.9928509556"><ele>200.73</ele><time>2023-12-06T10:17:47Z</time></trkpt><trkpt lat="51.9133236632" lon="-1.9931699708"><ele>200.73</ele><time>2023-12-06T10:18:14Z</time></trkpt><trkpt lat="51.9132878724" lon="-1.9934070949"><ele>200.73</ele><time>2023-12-06T10:18:36Z</time></trkpt><trkpt lat="51.9132441189" lon="-1.9936762378"><ele>200.73</ele><time>2023-12-06T10:18:59Z</time></trkpt><trkpt lat="51.9131740462" lon="-1.9939509127"><ele>200.73</ele><time>2023-12-06T10:19:23Z</time></trkpt><trkpt lat="51.9131435361" lon="-1.9942233246"><ele>200.73</ele><time>2023-12-06T10:19:47Z</time></trkpt><trkpt lat="51.9130778220" lon="-1.9945023581"><ele>200.73</ele><time>2023-12-06T10:20:09Z</time></trkpt><trkpt lat="51.9130209927" lon="-1.9947153423"><ele>200.73</ele><time>2023-12-06T10:20:30Z</time></trkpt><trkpt lat="51.9129953440" lon="-1.9949464314"><ele>200.73</ele><time>2023-12-06T10:21:01Z</time></trkpt><trkpt lat="51.9129383471" lon="-1.9951491896"><ele>200.73</ele><time>2023-12-06T10:21:25Z</time></trkpt><trkpt lat="51.9128791708" lon="-1.9952884968"><ele>200.73</ele><time>2023-12-06T10:21:49Z</time></trkpt><trkpt lat="51.9128010515" lon="-1.9955168199"><ele>200.73</ele><time>2023-12-06T10:22:11Z</time></trkpt><trkpt lat="51.9127821922" lon="-1.9955873955"><ele>200.73</ele><time>2023-12-06T10:22:31Z</time></trkpt><trkpt lat="51.9127673563" lon="-1.9956200849"><ele>200.73</ele><time>2023-12-06T10:22:53Z</time></trkpt><trkpt lat="51.9127640873" lon="-1.9956416264"><ele>200.73</ele><time>2023-12-06T10:23:16Z</time></trkpt><trkpt lat="51.9127989560" lon="-1.9957023952"><ele>200.73</ele><time>2023-12-06T10:23:37Z</time></trkpt><trkpt lat="51.9127915800" lon="-1.9957368448"><ele>200.73</ele><time>2023-12-06T10:23:56Z</time></trkpt><trkpt lat="51.9127842877" lon="-1.9957532734"><ele>187.36</ele><time>2023-12-06T10:24:03Z</time></trkpt><trkpt lat="51.9127836172" lon="-1.9957536086"><ele>188.53</ele><time>2023-12-06T10:24:04Z</time></trkpt><trkpt lat="51.9127853774" lon="-1.9957531895"><ele>192.19</ele><time>2023-12-06T10:24:06Z</time></trkpt><trkpt lat="51.9127838686" lon="-1.9957593922"><ele>195.38</ele><time>2023-12-06T10:24:08Z</time></trkpt><trkpt lat="51.9127821922" lon="-1.9957631640"><ele>194.71</ele><time>2023-12-06T10:24:09Z</time></trkpt><trkpt lat="51.9127776660" lon="-1.9957737252"><ele>197.73</ele><time>2023-12-06T10:24:12Z</time></trkpt><trkpt lat="51.9127745647" lon="-1.9957833644"><ele>200.75</ele><time>2023-12-06T10:24:13Z</time></trkpt><trkpt lat="51.9127751514" lon="-1.9957953505"><ele>204.31</ele><time>2023-12-06T10:24:14Z</time></trkpt><trkpt lat="51.9127660990" lon="-1.9958416186"><ele>207.83</ele><time>2023-12-06T10:24:16Z</time></trkpt><trkpt lat="51.9127453957" lon="-1.9959225040"><ele>204.37</ele><time>2023-12-06T10:24:22Z</time></trkpt><trkpt lat="51.9127359241" lon="-1.9959519245"><ele>200.48</ele><time>2023-12-06T10:24:28Z</time></trkpt><trkpt lat="51.9126764964" lon="-1.9961787388"><ele>203.50</ele><time>2023-12-06T10:24:46Z</time></trkpt><trkpt lat="51.9126273785" lon="-1.9964134321"><ele>201.26</ele><time>2023-12-06T10:25:08Z</time></trkpt><trkpt lat="51.9125952758" lon="-1.9966254104"><ele>200.73</ele><time>2023-12-06T10:25:28Z</time></trkpt><trkpt lat="51.9125724770" lon="-1.9968718383"><ele>200.59</ele><time>2023-12-06T10:25:52Z</time></trkpt><trkpt lat="51.9125725608" lon="-1.9970962219"><ele>200.97</ele><time>2023-12-06T10:26:12Z</time></trkpt><trkpt lat="51.9125732314" lon="-1.9973630179"><ele>200.97</ele><time>2023-12-06T10:26:35Z</time></trkpt><trkpt lat="51.9125868939" lon="-1.9975746609"><ele>200.97</ele><time>2023-12-06T10:26:55Z</time></trkpt><trkpt lat="51.9125868101" lon="-1.9977586437"><ele>200.97</ele><time>2023-12-06T10:27:13Z</time></trkpt><trkpt lat="51.9125929289" lon="-1.9980381802"><ele>200.97</ele><time>2023-12-06T10:27:37Z</time></trkpt><trkpt lat="51.9126035739" lon="-1.9982463028"><ele>200.97</ele><time>2023-12-06T10:27:57Z</time></trkpt><trkpt lat="51.9126100279" lon="-1.9984703511"><ele>200.97</ele><time>2023-12-06T10:28:17Z</time></trkpt><trkpt lat="51.9126247801" lon="-1.9987446070"><ele>200.97</ele><time>2023-12-06T10:28:41Z</time></trkpt><trkpt lat="51.9126496743" lon="-1.9989418332"><ele>200.97</ele><time>2023-12-06T10:29:02Z</time></trkpt><trkpt lat="51.9126438908" lon="-1.9990871754"><ele>200.97</ele><time>2023-12-06T10:29:19Z</time></trkpt><trkpt lat="51.9126656838" lon="-1.9993320107"><ele>200.97</ele><time>2023-12-06T10:29:42Z</time></trkpt><trkpt lat="51.9126624987" lon="-1.9993942883"><ele>200.97</ele><time>2023-12-06T10:29:59Z</time></trkpt><trkpt lat="51.9126402028" lon="-1.9996550493"><ele>200.97</ele><time>2023-12-06T10:30:22Z</time></trkpt><trkpt lat="51.9126160629" lon="-1.9998977054"><ele>200.97</ele><time>2023-12-06T10:30:48Z</time></trkpt><trkpt lat="51.9126221817" lon="-2.0001694467"><ele>197.61</ele><time>2023-12-06T10:31:10Z</time></trkpt><trkpt lat="51.9126224332" lon="-2.0001804270"><ele>197.55</ele><time>2023-12-06T10:31:11Z</time></trkpt><trkpt lat="51.9126158115" lon="-2.0004432835"><ele>196.17</ele><time>2023-12-06T10:31:37Z</time></trkpt><trkpt lat="51.9126031548" lon="-2.0006649010"><ele>194.93</ele><time>2023-12-06T10:31:57Z</time></trkpt><trkpt lat="51.9125837926" lon="-2.0008896198"><ele>193.52</ele><time>2023-12-06T10:32:16Z</time></trkpt><trkpt lat="51.9125647657" lon="-2.0009424258"><ele>192.36</ele><time>2023-12-06T10:32:32Z</time></trkpt><trkpt lat="51.9125568029" lon="-2.0009974949"><ele>193.53</ele><time>2023-12-06T10:32:44Z</time></trkpt><trkpt lat="51.9125145581" lon="-2.0010269154"><ele>190.86</ele><time>2023-12-06T10:33:07Z</time></trkpt><trkpt lat="51.9124967884" lon="-2.0011362992"><ele>190.94</ele><time>2023-12-06T10:33:32Z</time></trkpt><trkpt lat="51.9124795217" lon="-2.0012300089"><ele>192.10</ele><time>2023-12-06T10:33:59Z</time></trkpt><trkpt lat="51.9124843832" lon="-2.0012889337"><ele>189.91</ele><time>2023-12-06T10:34:05Z</time></trkpt><trkpt lat="51.9124941062" lon="-2.0014601760"><ele>188.45</ele><time>2023-12-06T10:34:26Z</time></trkpt><trkpt lat="51.9124906696" lon="-2.0014652889"><ele>188.49</ele><time>2023-12-06T10:34:49Z</time></trkpt><trkpt lat="51.9125107862" lon="-2.0015433244"><ele>185.47</ele><time>2023-12-06T10:35:05Z</time></trkpt><trkpt lat="51.9125112891" lon="-2.0015483536"><ele>185.17</ele><time>2023-12-06T10:35:06Z</time></trkpt><trkpt lat="51.9125465769" lon="-2.0016823802"><ele>188.40</ele><time>2023-12-06T10:35:13Z</time></trkpt><trkpt lat="51.9125454873" lon="-2.0016846433"><ele>188.67</ele><time>2023-12-06T10:35:14Z</time></trkpt><trkpt lat="51.9125297293" lon="-2.0018020738"><ele>186.71</ele><time>2023-12-06T10:35:42Z</time></trkpt><trkpt lat="51.9125656877" lon="-2.0019044168"><ele>187.71</ele><time>2023-12-06T10:35:57Z</time></trkpt><trkpt lat="51.9125977904" lon="-2.0021161437"><ele>184.99</ele><time>2023-12-06T10:36:20Z</time></trkpt><trkpt lat="51.9125960302" lon="-2.0022234321"><ele>183.24</ele><time>2023-12-06T10:36:42Z</time></trkpt><trkpt lat="51.9125514384" lon="-2.0025207382"><ele>182.18</ele><time>2023-12-06T10:37:02Z</time></trkpt><trkpt lat="51.9125816971" lon="-2.0024754759"><ele>181.86</ele><time>2023-12-06T10:37:28Z</time></trkpt><trkpt lat="51.9125718065" lon="-2.0026447903"><ele>180.39</ele><time>2023-12-06T10:37:49Z</time></trkpt><trkpt lat="51.9126118720" lon="-2.0028188825"><ele>178.43</ele><time>2023-12-06T10:38:14Z</time></trkpt><trkpt lat="51.9125620835" lon="-2.0030386560"><ele>177.46</ele><time>2023-12-06T10:38:40Z</time></trkpt><trkpt lat="51.9125560485" lon="-2.0030515641"><ele>177.39</ele><time>2023-12-06T10:38:41Z</time></trkpt><trkpt lat="51.9125522766" lon="-2.0032560825"><ele>174.88</ele><time>2023-12-06T10:39:07Z</time></trkpt><trkpt lat="51.9125643466" lon="-2.0035116468"><ele>172.66</ele><time>2023-12-06T10:39:28Z</time></trkpt><trkpt lat="51.9126018137" lon="-2.0038450789"><ele>171.16</ele><time>2023-12-06T10:39:46Z</time></trkpt><trkpt lat="51.9125958625" lon="-2.0038631838"><ele>171.22</ele><time>2023-12-06T10:40:09Z</time></trkpt><trkpt lat="51.9125970360" lon="-2.0038891677"><ele>170.53</ele><time>2023-12-06T10:40:27Z</time></trkpt><trkpt lat="51.9125781767" lon="-2.0039692149"><ele>170.39</ele><time>2023-12-06T10:40:45Z</time></trkpt><trkpt lat="51.9125904981" lon="-2.0041571371"><ele>171.09</ele><time>2023-12-06T10:41:04Z</time></trkpt><trkpt lat="51.9125884864" lon="-2.0043485798"><ele>171.40</ele><time>2023-12-06T10:41:23Z</time></trkpt><trkpt lat="51.9125842955" lon="-2.0044846181"><ele>171.68</ele><time>2023-12-06T10:41:40Z</time></trkpt><trkpt lat="51.9125875644" lon="-2.0045627374"><ele>173.15</ele><time>2023-12-06T10:41:55Z</time></trkpt><trkpt lat="51.9125755783" lon="-2.0047143660"><ele>173.25</ele><time>2023-12-06T10:42:13Z</time></trkpt><trkpt lat="51.9125713874" lon="-2.0048854407"><ele>174.45</ele><time>2023-12-06T10:42:33Z</time></trkpt><trkpt lat="51.9125490915" lon="-2.0049971715"><ele>175.16</ele><time>2023-12-06T10:42:50Z</time></trkpt><trkpt lat="51.9125256222" lon="-2.0051631331"><ele>175.91</ele><time>2023-12-06T10:43:12Z</time></trkpt><trkpt lat="51.9125243649" lon="-2.0051657315"><ele>176.97</ele><time>2023-12-06T10:43:36Z</time></trkpt><trkpt lat="51.9125112891" lon="-2.0051675756"><ele>174.56</ele><time>2023-12-06T10:43:45Z</time></trkpt><trkpt lat="51.9125047512" lon="-2.0051712636"><ele>177.72</ele><time>2023-12-06T10:44:00Z</time></trkpt><trkpt lat="51.9125046674" lon="-2.0051752869"><ele>177.95</ele><time>2023-12-06T10:44:01Z</time></trkpt><trkpt lat="51.9124972075" lon="-2.0051852614"><ele>174.82</ele><time>2023-12-06T10:44:13Z</time></trkpt><trkpt lat="51.9124928489" lon="-2.0051900391"><ele>177.90</ele><time>2023-12-06T10:44:22Z</time></trkpt><trkpt lat="51.9124656916" lon="-2.0054274984"><ele>177.06</ele><time>2023-12-06T10:44:43Z</time></trkpt><trkpt lat="51.9124409650" lon="-2.0056093857"><ele>180.08</ele><time>2023-12-06T10:44:59Z</time></trkpt><trkpt lat="51.9123975467" lon="-2.0058579091"><ele>177.96</ele><time>2023-12-06T10:45:14Z</time></trkpt><trkpt lat="51.9123306591" lon="-2.0062156487"><ele>180.11</ele><time>2023-12-06T10:45:35Z</time></trkpt><trkpt lat="51.9122745842" lon="-2.0065005496"><ele>181.42</ele><time>2023-12-06T10:45:53Z</time></trkpt><trkpt lat="51.9122264720" lon="-2.0067787450"><ele>182.62</ele><time>2023-12-06T10:46:11Z</time></trkpt><trkpt lat="51.9121826347" lon="-2.0070255082"><ele>183.58</ele><time>2023-12-06T10:46:28Z</time></trkpt><trkpt lat="51.9121339358" lon="-2.0072853472"><ele>184.96</ele><time>2023-12-06T10:46:46Z</time></trkpt><trkpt lat="51.9120859075" lon="-2.0074952301"><ele>186.20</ele><time>2023-12-06T10:47:05Z</time></trkpt><trkpt lat="51.9120297488" lon="-2.0077599306"><ele>187.61</ele><time>2023-12-06T10:47:27Z</time></trkpt><trkpt lat="51.9119735062" lon="-2.0079914387"><ele>189.06</ele><time>2023-12-06T10:47:48Z</time></trkpt><trkpt lat="51.9119276572" lon="-2.0082034171"><ele>190.04</ele><time>2023-12-06T10:48:08Z</time></trkpt><trkpt lat="51.9119014218" lon="-2.0083871484"><ele>190.86</ele><time>2023-12-06T10:48:27Z</time></trkpt><trkpt lat="51.9118585903" lon="-2.0086163934"><ele>192.26</ele><time>2023-12-06T10:48:49Z</time></trkpt><trkpt lat="51.9118165970" lon="-2.0087842830"><ele>192.64</ele><time>2023-12-06T10:49:06Z</time></trkpt><trkpt lat="51.9117768668" lon="-2.0089941658"><ele>194.04</ele><time>2023-12-06T10:49:26Z</time></trkpt><trkpt lat="51.9117436744" lon="-2.0091941580"><ele>195.16</ele><time>2023-12-06T10:49:46Z</time></trkpt><trkpt lat="51.9116992503" lon="-2.0094321202"><ele>196.54</ele><time>2023-12-06T10:50:07Z</time></trkpt><trkpt lat="51.9116576761" lon="-2.0096821524"><ele>197.87</ele><time>2023-12-06T10:50:31Z</time></trkpt><trkpt lat="51.9116334524" lon="-2.0099045243"><ele>199.43</ele><time>2023-12-06T10:50:49Z</time></trkpt><trkpt lat="51.9115838315" lon="-2.0101570711"><ele>200.44</ele><time>2023-12-06T10:51:11Z</time></trkpt><trkpt lat="51.9115382340" lon="-2.0102964621"><ele>200.94</ele><time>2023-12-06T10:51:27Z</time></trkpt><trkpt lat="51.9114891998" lon="-2.0103653613"><ele>201.81</ele><time>2023-12-06T10:51:45Z</time></trkpt><trkpt lat="51.9114490505" lon="-2.0104213525"><ele>202.16</ele><time>2023-12-06T10:52:03Z</time></trkpt><trkpt lat="51.9114320353" lon="-2.0103983860"><ele>202.25</ele><time>2023-12-06T10:52:26Z</time></trkpt><trkpt lat="51.9115228951" lon="-2.0104009844"><ele>201.75</ele><time>2023-12-06T10:52:50Z</time></trkpt><trkpt lat="51.9115663972" lon="-2.0104017388"><ele>202.97</ele><time>2023-12-06T10:53:07Z</time></trkpt><trkpt lat="51.9117114879" lon="-2.0104027446"><ele>203.09</ele><time>2023-12-06T10:53:29Z</time></trkpt><trkpt lat="51.9118951354" lon="-2.0104448218"><ele>203.95</ele><time>2023-12-06T10:53:52Z</time></trkpt><trkpt lat="51.9120827224" lon="-2.0104513597"><ele>205.02</ele><time>2023-12-06T10:54:17Z</time></trkpt><trkpt lat="51.9122817088" lon="-2.0104813669"><ele>206.59</ele><time>2023-12-06T10:54:42Z</time></trkpt><trkpt lat="51.9124598242" lon="-2.0105205942"><ele>207.76</ele><time>2023-12-06T10:55:04Z</time></trkpt><trkpt lat="51.9126375206" lon="-2.0105255395"><ele>209.89</ele><time>2023-12-06T10:55:31Z</time></trkpt><trkpt lat="51.9128537737" lon="-2.0105442312"><ele>211.03</ele><time>2023-12-06T10:55:52Z</time></trkpt><trkpt lat="51.9130045641" lon="-2.0105516911"><ele>212.16</ele><time>2023-12-06T10:56:09Z</time></trkpt><trkpt lat="51.9131161273" lon="-2.0105479192"><ele>212.82</ele><time>2023-12-06T10:56:25Z</time></trkpt><trkpt lat="51.9131592102" lon="-2.0105577260"><ele>213.48</ele><time>2023-12-06T10:56:44Z</time></trkpt><trkpt lat="51.9133052230" lon="-2.0105588995"><ele>214.02</ele><time>2023-12-06T10:57:06Z</time></trkpt><trkpt lat="51.9133950770" lon="-2.0105765015"><ele>214.55</ele><time>2023-12-06T10:57:26Z</time></trkpt><trkpt lat="51.9135971647" lon="-2.0105791837"><ele>216.22</ele><time>2023-12-06T10:57:53Z</time></trkpt><trkpt lat="51.9137479551" lon="-2.0106012281"><ele>217.06</ele><time>2023-12-06T10:58:14Z</time></trkpt><trkpt lat="51.9139715005" lon="-2.0106326602"><ele>217.85</ele><time>2023-12-06T10:58:39Z</time></trkpt><trkpt lat="51.9141236320" lon="-2.0106186625"><ele>218.25</ele><time>2023-12-06T10:59:00Z</time></trkpt><trkpt lat="51.9142297469" lon="-2.0106675290"><ele>218.32</ele><time>2023-12-06T10:59:15Z</time></trkpt><trkpt lat="51.9143542182" lon="-2.0106949378"><ele>218.66</ele><time>2023-12-06T10:59:31Z</time></trkpt><trkpt lat="51.9145350158" lon="-2.0107150543"><ele>218.82</ele><time>2023-12-06T10:59:50Z</time></trkpt><trkpt lat="51.9147046655" lon="-2.0107412059"><ele>218.78</ele><time>2023-12-06T11:00:09Z</time></trkpt><trkpt lat="51.9148746505" lon="-2.0107447263"><ele>218.93</ele><time>2023-12-06T11:00:29Z</time></trkpt><trkpt lat="51.9150251057" lon="-2.0107723027"><ele>219.01</ele><time>2023-12-06T11:00:49Z</time></trkpt><trkpt lat="51.9152026344" lon="-2.0107698720"><ele>219.00</ele><time>2023-12-06T11:01:09Z</time></trkpt><trkpt lat="51.9152735453" lon="-2.0107755717"><ele>219.30</ele><time>2023-12-06T11:01:28Z</time></trkpt><trkpt lat="51.9153965916" lon="-2.0107853785"><ele>219.30</ele><time>2023-12-06T11:01:45Z</time></trkpt><trkpt lat="51.9155366533" lon="-2.0108028129"><ele>219.30</ele><time>2023-12-06T11:02:04Z</time></trkpt><trkpt lat="51.9157125056" lon="-2.0108282939"><ele>219.66</ele><time>2023-12-06T11:02:23Z</time></trkpt><trkpt lat="51.9158582669" lon="-2.0108501706"><ele>219.92</ele><time>2023-12-06T11:02:40Z</time></trkpt><trkpt lat="51.9160221331" lon="-2.0108915772"><ele>220.01</ele><time>2023-12-06T11:03:01Z</time></trkpt><trkpt lat="51.9161591772" lon="-2.0108904038"><ele>219.44</ele><time>2023-12-06T11:03:21Z</time></trkpt><trkpt lat="51.9162643701" lon="-2.0109359175"><ele>219.63</ele><time>2023-12-06T11:03:37Z</time></trkpt><trkpt lat="51.9163947087" lon="-2.0109487418"><ele>219.49</ele><time>2023-12-06T11:03:54Z</time></trkpt><trkpt lat="51.9165419787" lon="-2.0109949261"><ele>219.78</ele><time>2023-12-06T11:04:12Z</time></trkpt><trkpt lat="51.9167004805" lon="-2.0110277832"><ele>220.35</ele><time>2023-12-06T11:04:30Z</time></trkpt><trkpt lat="51.9168235268" lon="-2.0110827684"><ele>220.82</ele><time>2023-12-06T11:04:47Z</time></trkpt><trkpt lat="51.9168627542" lon="-2.0110991132"><ele>220.96</ele><time>2023-12-06T11:05:04Z</time></trkpt><trkpt lat="51.9170167297" lon="-2.0111026336"><ele>220.83</ele><time>2023-12-06T11:05:22Z</time></trkpt><trkpt lat="51.9171459787" lon="-2.0110973530"><ele>220.81</ele><time>2023-12-06T11:05:43Z</time></trkpt><trkpt lat="51.9172973558" lon="-2.0111294556"><ele>220.53</ele><time>2023-12-06T11:06:03Z</time></trkpt><trkpt lat="51.9174430333" lon="-2.0111426990"><ele>220.53</ele><time>2023-12-06T11:06:24Z</time></trkpt><trkpt lat="51.9175369944" lon="-2.0111842733"><ele>220.53</ele><time>2023-12-06T11:06:38Z</time></trkpt><trkpt lat="51.9177065603" lon="-2.0111778192"><ele>219.56</ele><time>2023-12-06T11:06:57Z</time></trkpt><trkpt lat="51.9179067202" lon="-2.0112171303"><ele>219.28</ele><time>2023-12-06T11:07:17Z</time></trkpt><trkpt lat="51.9179481268" lon="-2.0112632308"><ele>217.87</ele><time>2023-12-06T11:07:32Z</time></trkpt><trkpt lat="51.9179503061" lon="-2.0112918969"><ele>219.91</ele><time>2023-12-06T11:07:37Z</time></trkpt><trkpt lat="51.9179506414" lon="-2.0112872869"><ele>216.91</ele><time>2023-12-06T11:07:57Z</time></trkpt><trkpt lat="51.9179586880" lon="-2.0112841018"><ele>219.92</ele><time>2023-12-06T11:08:05Z</time></trkpt><trkpt lat="51.9180370588" lon="-2.0112822577"><ele>218.35</ele><time>2023-12-06T11:08:29Z</time></trkpt><trkpt lat="51.9181844126" lon="-2.0112497360"><ele>218.13</ele><time>2023-12-06T11:08:49Z</time></trkpt><trkpt lat="51.9183329400" lon="-2.0112728700"><ele>217.35</ele><time>2023-12-06T11:09:08Z</time></trkpt><trkpt lat="51.9184629433" lon="-2.0112928189"><ele>217.35</ele><time>2023-12-06T11:09:26Z</time></trkpt><trkpt lat="51.9186781067" lon="-2.0113203954"><ele>216.13</ele><time>2023-12-06T11:09:48Z</time></trkpt><trkpt lat="51.9188149832" lon="-2.0113211498"><ele>215.17</ele><time>2023-12-06T11:10:07Z</time></trkpt><trkpt lat="51.9189479202" lon="-2.0113389194"><ele>214.50</ele><time>2023-12-06T11:10:22Z</time></trkpt><trkpt lat="51.9190453179" lon="-2.0113534201"><ele>213.85</ele><time>2023-12-06T11:10:35Z</time></trkpt><trkpt lat="51.9191460684" lon="-2.0113752130"><ele>214.12</ele><time>2023-12-06T11:10:53Z</time></trkpt><trkpt lat="51.9193283748" lon="-2.0114482194"><ele>214.96</ele><time>2023-12-06T11:11:18Z</time></trkpt><trkpt lat="51.9193707872" lon="-2.0114512369"><ele>215.04</ele><time>2023-12-06T11:11:29Z</time></trkpt><trkpt lat="51.9194916543" lon="-2.0114889555"><ele>215.25</ele><time>2023-12-06T11:11:52Z</time></trkpt><trkpt lat="51.9196275249" lon="-2.0114051364"><ele>214.82</ele><time>2023-12-06T11:12:15Z</time></trkpt><trkpt lat="51.9197975099" lon="-2.0113343094"><ele>214.46</ele><time>2023-12-06T11:12:40Z</time></trkpt><trkpt lat="51.9199894555" lon="-2.0112468861"><ele>214.46</ele><time>2023-12-06T11:13:03Z</time></trkpt><trkpt lat="51.9201578479" lon="-2.0111628994"><ele>213.89</ele><time>2023-12-06T11:13:23Z</time></trkpt><trkpt lat="51.9202633761" lon="-2.0111046452"><ele>213.76</ele><time>2023-12-06T11:13:39Z</time></trkpt><trkpt lat="51.9204108976" lon="-2.0110316388"><ele>214.60</ele><time>2023-12-06T11:13:57Z</time></trkpt><trkpt lat="51.9205561560" lon="-2.0109609794"><ele>215.73</ele><time>2023-12-06T11:14:18Z</time></trkpt><trkpt lat="51.9207342714" lon="-2.0108674373"><ele>217.30</ele><time>2023-12-06T11:14:38Z</time></trkpt><trkpt lat="51.9208605867" lon="-2.0107888151"><ele>219.35</ele><time>2023-12-06T11:14:58Z</time></trkpt><trkpt lat="51.9210241176" lon="-2.0107174013"><ele>221.34</ele><time>2023-12-06T11:15:20Z</time></trkpt><trkpt lat="51.9211467449" lon="-2.0106015634"><ele>223.11</ele><time>2023-12-06T11:15:38Z</time></trkpt><trkpt lat="51.9212887343" lon="-2.0105193369"><ele>224.35</ele><time>2023-12-06T11:15:55Z</time></trkpt><trkpt lat="51.9214443024" lon="-2.0104030799"><ele>225.73</ele><time>2023-12-06T11:16:15Z</time></trkpt><trkpt lat="51.9216183946" lon="-2.0102689695"><ele>227.01</ele><time>2023-12-06T11:16:34Z</time></trkpt><trkpt lat="51.9217393454" lon="-2.0101808757"><ele>227.67</ele><time>2023-12-06T11:16:50Z</time></trkpt><trkpt lat="51.9218882080" lon="-2.0100877527"><ele>228.70</ele><time>2023-12-06T11:17:11Z</time></trkpt><trkpt lat="51.9219778106" lon="-2.0100319292"><ele>228.98</ele><time>2023-12-06T11:17:31Z</time></trkpt><trkpt lat="51.9220082369" lon="-2.0100136567"><ele>229.18</ele><time>2023-12-06T11:17:47Z</time></trkpt><trkpt lat="51.9220063929" lon="-2.0099911094"><ele>228.90</ele><time>2023-12-06T11:18:05Z</time></trkpt><trkpt lat="51.9220134337" lon="-2.0100180153"><ele>229.21</ele><time>2023-12-06T11:18:27Z</time></trkpt><trkpt lat="51.9220110029" lon="-2.0099943783"><ele>229.21</ele><time>2023-12-06T11:18:54Z</time></trkpt><trkpt lat="51.9220197201" lon="-2.0100250561"><ele>229.21</ele><time>2023-12-06T11:19:15Z</time></trkpt><trkpt lat="51.9220238272" lon="-2.0100099687"><ele>229.21</ele><time>2023-12-06T11:19:36Z</time></trkpt><trkpt lat="51.9220096618" lon="-2.0100048557"><ele>229.21</ele><time>2023-12-06T11:19:57Z</time></trkpt><trkpt lat="51.9220109191" lon="-2.0099419914"><ele>229.33</ele><time>2023-12-06T11:20:25Z</time></trkpt><trkpt lat="51.9220136851" lon="-2.0099427458"><ele>230.60</ele><time>2023-12-06T11:20:45Z</time></trkpt><trkpt lat="51.9220199715" lon="-2.0099714957"><ele>230.70</ele><time>2023-12-06T11:21:22Z</time></trkpt><trkpt lat="51.9220208935" lon="-2.0099807996"><ele>230.91</ele><time>2023-12-06T11:21:57Z</time></trkpt><trkpt lat="51.9220318738" lon="-2.0099901035"><ele>230.85</ele><time>2023-12-06T11:22:24Z</time></trkpt><trkpt lat="51.9220386632" lon="-2.0099859964"><ele>231.10</ele><time>2023-12-06T11:22:48Z</time></trkpt><trkpt lat="51.9220403396" lon="-2.0099980664"><ele>231.10</ele><time>2023-12-06T11:23:11Z</time></trkpt><trkpt lat="51.9220300298" lon="-2.0100205299"><ele>231.10</ele><time>2023-12-06T11:23:46Z</time></trkpt><trkpt lat="51.9220283534" lon="-2.0099951327"><ele>231.10</ele><time>2023-12-06T11:24:15Z</time></trkpt><trkpt lat="51.9220212288" lon="-2.0100057777"><ele>231.10</ele><time>2023-12-06T11:24:39Z</time></trkpt><trkpt lat="51.9220255036" lon="-2.0100057777"><ele>231.10</ele><time>2023-12-06T11:25:10Z</time></trkpt><trkpt lat="51.9220408425" lon="-2.0099728368"><ele>231.10</ele><time>2023-12-06T11:25:27Z</time></trkpt><trkpt lat="51.9220391661" lon="-2.0099953841"><ele>231.10</ele><time>2023-12-06T11:26:16Z</time></trkpt><trkpt lat="51.9220249169" lon="-2.0100232959"><ele>231.10</ele><time>2023-12-06T11:27:28Z</time></trkpt><trkpt lat="51.9220317900" lon="-2.0100564882"><ele>231.10</ele><time>2023-12-06T11:27:54Z</time></trkpt><trkpt lat="51.9220347237" lon="-2.0100411493"><ele>231.10</ele><time>2023-12-06T11:28:27Z</time></trkpt><trkpt lat="51.9220385794" lon="-2.0100415684"><ele>231.10</ele><time>2023-12-06T11:28:54Z</time></trkpt><trkpt lat="51.9220427703" lon="-2.0100334380"><ele>231.10</ele><time>2023-12-06T11:29:19Z</time></trkpt><trkpt lat="51.9220397528" lon="-2.0100175962"><ele>231.10</ele><time>2023-12-06T11:29:40Z</time></trkpt><trkpt lat="51.9220208097" lon="-2.0100175124"><ele>231.10</ele><time>2023-12-06T11:29:58Z</time></trkpt><trkpt lat="51.9220348075" lon="-2.0099970605"><ele>231.10</ele><time>2023-12-06T11:30:27Z</time></trkpt><trkpt lat="51.9220073987" lon="-2.0098662190"><ele>231.11</ele><time>2023-12-06T11:30:39Z</time></trkpt><trkpt lat="51.9219360687" lon="-2.0096546598"><ele>232.34</ele><time>2023-12-06T11:30:56Z</time></trkpt><trkpt lat="51.9218522497" lon="-2.0095130056"><ele>233.06</ele><time>2023-12-06T11:31:15Z</time></trkpt><trkpt lat="51.9217230007" lon="-2.0092739537"><ele>234.76</ele><time>2023-12-06T11:31:33Z</time></trkpt><trkpt lat="51.9215787482" lon="-2.0089685172"><ele>233.50</ele><time>2023-12-06T11:31:54Z</time></trkpt><trkpt lat="51.9214223418" lon="-2.0086829457"><ele>233.95</ele><time>2023-12-06T11:32:14Z</time></trkpt><trkpt lat="51.9212955236" lon="-2.0083956979"><ele>234.20</ele><time>2023-12-06T11:32:34Z</time></trkpt><trkpt lat="51.9211907499" lon="-2.0082004834"><ele>235.34</ele><time>2023-12-06T11:32:53Z</time></trkpt><trkpt lat="51.9211848825" lon="-2.0081968792"><ele>236.97</ele><time>2023-12-06T11:33:02Z</time></trkpt><trkpt lat="51.9211647660" lon="-2.0081536286"><ele>235.40</ele><time>2023-12-06T11:33:22Z</time></trkpt><trkpt lat="51.9210818689" lon="-2.0079767704"><ele>236.51</ele><time>2023-12-06T11:33:37Z</time></trkpt><trkpt lat="51.9209272228" lon="-2.0076623652"><ele>235.69</ele><time>2023-12-06T11:33:57Z</time></trkpt><trkpt lat="51.9207688887" lon="-2.0073710941"><ele>235.66</ele><time>2023-12-06T11:34:17Z</time></trkpt><trkpt lat="51.9206370413" lon="-2.0071200561"><ele>236.02</ele><time>2023-12-06T11:34:35Z</time></trkpt><trkpt lat="51.9204868376" lon="-2.0068353228"><ele>236.47</ele><time>2023-12-06T11:34:58Z</time></trkpt><trkpt lat="51.9203560799" lon="-2.0065705385"><ele>236.75</ele><time>2023-12-06T11:35:20Z</time></trkpt><trkpt lat="51.9202297647" lon="-2.0063378569"><ele>236.81</ele><time>2023-12-06T11:35:42Z</time></trkpt><trkpt lat="51.9200665690" lon="-2.0060285646"><ele>236.89</ele><time>2023-12-06T11:36:08Z</time></trkpt><trkpt lat="51.9199609570" lon="-2.0057896804"><ele>236.67</ele><time>2023-12-06T11:36:28Z</time></trkpt><trkpt lat="51.9198180456" lon="-2.0055181067"><ele>236.58</ele><time>2023-12-06T11:36:52Z</time></trkpt><trkpt lat="51.9196794089" lon="-2.0052447729"><ele>236.76</ele><time>2023-12-06T11:37:15Z</time></trkpt><trkpt lat="51.9195502438" lon="-2.0049461257"><ele>236.44</ele><time>2023-12-06T11:37:37Z</time></trkpt><trkpt lat="51.9194078352" lon="-2.0046567824"><ele>235.79</ele><time>2023-12-06T11:37:59Z</time></trkpt><trkpt lat="51.9192801788" lon="-2.0043537766"><ele>234.37</ele><time>2023-12-06T11:38:22Z</time></trkpt><trkpt lat="51.9191743992" lon="-2.0041146409"><ele>232.89</ele><time>2023-12-06T11:38:42Z</time></trkpt><trkpt lat="51.9190562144" lon="-2.0038601663"><ele>231.13</ele><time>2023-12-06T11:39:03Z</time></trkpt><trkpt lat="51.9190432224" lon="-2.0037602540"><ele>231.02</ele><time>2023-12-06T11:39:10Z</time></trkpt><trkpt lat="51.9189736526" lon="-2.0035930350"><ele>230.22</ele><time>2023-12-06T11:39:24Z</time></trkpt><trkpt lat="51.9188571442" lon="-2.0033208746"><ele>228.79</ele><time>2023-12-06T11:39:45Z</time></trkpt><trkpt lat="51.9187640212" lon="-2.0030695014"><ele>227.68</ele><time>2023-12-06T11:40:04Z</time></trkpt><trkpt lat="51.9186550565" lon="-2.0027680881"><ele>226.77</ele><time>2023-12-06T11:40:25Z</time></trkpt><trkpt lat="51.9185460079" lon="-2.0025178045"><ele>226.14</ele><time>2023-12-06T11:40:45Z</time></trkpt><trkpt lat="51.9184449222" lon="-2.0022687782"><ele>225.80</ele><time>2023-12-06T11:41:05Z</time></trkpt><trkpt lat="51.9183357898" lon="-2.0019701310"><ele>225.77</ele><time>2023-12-06T11:41:29Z</time></trkpt><trkpt lat="51.9182339497" lon="-2.0017328393"><ele>225.73</ele><time>2023-12-06T11:41:49Z</time></trkpt><trkpt lat="51.9181379769" lon="-2.0014443342"><ele>225.45</ele><time>2023-12-06T11:42:11Z</time></trkpt><trkpt lat="51.9180994201" lon="-2.0013236348"><ele>225.49</ele><time>2023-12-06T11:42:28Z</time></trkpt><trkpt lat="51.9180363044" lon="-2.0011733472"><ele>225.20</ele><time>2023-12-06T11:42:43Z</time></trkpt><trkpt lat="51.9179845881" lon="-2.0009224769"><ele>224.93</ele><time>2023-12-06T11:43:00Z</time></trkpt><trkpt lat="51.9178789761" lon="-2.0006550942"><ele>224.39</ele><time>2023-12-06T11:43:22Z</time></trkpt><trkpt lat="51.9177852664" lon="-2.0003828499"><ele>224.25</ele><time>2023-12-06T11:43:44Z</time></trkpt><trkpt lat="51.9176647346" lon="-2.0001051575"><ele>224.34</ele><time>2023-12-06T11:44:06Z</time></trkpt><trkpt lat="51.9175446220" lon="-1.9998078514"><ele>224.31</ele><time>2023-12-06T11:44:28Z</time></trkpt><trkpt lat="51.9174273591" lon="-1.9995296560"><ele>224.45</ele><time>2023-12-06T11:44:50Z</time></trkpt><trkpt lat="51.9172722101" lon="-1.9992029294"><ele>224.47</ele><time>2023-12-06T11:45:15Z</time></trkpt><trkpt lat="51.9171945099" lon="-1.9989757799"><ele>224.76</ele><time>2023-12-06T11:45:32Z</time></trkpt><trkpt lat="51.9170917477" lon="-1.9986938965"><ele>224.77</ele><time>2023-12-06T11:45:55Z</time></trkpt><trkpt lat="51.9169866387" lon="-1.9984485582"><ele>224.97</ele><time>2023-12-06T11:46:15Z</time></trkpt><trkpt lat="51.9168920908" lon="-1.9982069917"><ele>225.28</ele><time>2023-12-06T11:46:34Z</time></trkpt><trkpt lat="51.9167826232" lon="-1.9979013037"><ele>225.12</ele><time>2023-12-06T11:46:57Z</time></trkpt><trkpt lat="51.9166615047" lon="-1.9976231083"><ele>225.33</ele><time>2023-12-06T11:47:19Z</time></trkpt><trkpt lat="51.9165588263" lon="-1.9973545521"><ele>225.29</ele><time>2023-12-06T11:47:39Z</time></trkpt><trkpt lat="51.9164543878" lon="-1.9970942102"><ele>225.14</ele><time>2023-12-06T11:47:59Z</time></trkpt><trkpt lat="51.9163247198" lon="-1.9968301803"><ele>224.80</ele><time>2023-12-06T11:48:20Z</time></trkpt><trkpt lat="51.9162165932" lon="-1.9965785556"><ele>224.81</ele><time>2023-12-06T11:48:39Z</time></trkpt><trkpt lat="51.9161369652" lon="-1.9963353965"><ele>224.42</ele><time>2023-12-06T11:48:57Z</time></trkpt><trkpt lat="51.9160391483" lon="-1.9961659145"><ele>224.02</ele><time>2023-12-06T11:49:11Z</time></trkpt><trkpt lat="51.9160246477" lon="-1.9961243402"><ele>223.96</ele><time>2023-12-06T11:49:14Z</time></trkpt><trkpt lat="51.9159364700" lon="-1.9959114399"><ele>223.69</ele><time>2023-12-06T11:49:32Z</time></trkpt><trkpt lat="51.9158326183" lon="-1.9956917502"><ele>223.43</ele><time>2023-12-06T11:49:50Z</time></trkpt><trkpt lat="51.9157434348" lon="-1.9954881538"><ele>222.81</ele><time>2023-12-06T11:50:07Z</time></trkpt><trkpt lat="51.9156363979" lon="-1.9952473417"><ele>222.47</ele><time>2023-12-06T11:50:27Z</time></trkpt><trkpt lat="51.9154944923" lon="-1.9949652907"><ele>221.89</ele><time>2023-12-06T11:50:48Z</time></trkpt><trkpt lat="51.9153633993" lon="-1.9947038591"><ele>221.23</ele><time>2023-12-06T11:51:08Z</time></trkpt><trkpt lat="51.9152313005" lon="-1.9944152702"><ele>220.08</ele><time>2023-12-06T11:51:30Z</time></trkpt><trkpt lat="51.9150945079" lon="-1.9941271003"><ele>219.27</ele><time>2023-12-06T11:51:52Z</time></trkpt><trkpt lat="51.9150110241" lon="-1.9939131103"><ele>218.45</ele><time>2023-12-06T11:52:10Z</time></trkpt><trkpt lat="51.9149085134" lon="-1.9936872181"><ele>217.61</ele><time>2023-12-06T11:52:29Z</time></trkpt><trkpt lat="51.9147966150" lon="-1.9934357610"><ele>216.73</ele><time>2023-12-06T11:52:48Z</time></trkpt><trkpt lat="51.9146979600" lon="-1.9931879919"><ele>215.91</ele><time>2023-12-06T11:53:07Z</time></trkpt><trkpt lat="51.9145615026" lon="-1.9929131493"><ele>214.74</ele><time>2023-12-06T11:53:29Z</time></trkpt><trkpt lat="51.9144247938" lon="-1.9926613569"><ele>213.89</ele><time>2023-12-06T11:53:49Z</time></trkpt><trkpt lat="51.9143191818" lon="-1.9924379792"><ele>213.04</ele><time>2023-12-06T11:54:07Z</time></trkpt><trkpt lat="51.9142136537" lon="-1.9922331255"><ele>212.38</ele><time>2023-12-06T11:54:24Z</time></trkpt><trkpt lat="51.9140863325" lon="-1.9919996895"><ele>212.00</ele><time>2023-12-06T11:54:44Z</time></trkpt><trkpt lat="51.9139797986" lon="-1.9917657506"><ele>211.28</ele><time>2023-12-06T11:55:02Z</time></trkpt><trkpt lat="51.9138665590" lon="-1.9915272854"><ele>210.86</ele><time>2023-12-06T11:55:21Z</time></trkpt><trkpt lat="51.9137532357" lon="-1.9912999682"><ele>210.07</ele><time>2023-12-06T11:55:39Z</time></trkpt><trkpt lat="51.9136261661" lon="-1.9910387043"><ele>209.53</ele><time>2023-12-06T11:56:00Z</time></trkpt><trkpt lat="51.9135232363" lon="-1.9908091240"><ele>208.32</ele><time>2023-12-06T11:56:20Z</time></trkpt><trkpt lat="51.9134215638" lon="-1.9905911945"><ele>207.80</ele><time>2023-12-06T11:56:38Z</time></trkpt><trkpt lat="51.9132817537" lon="-1.9903521426"><ele>206.81</ele><time>2023-12-06T11:56:59Z</time></trkpt><trkpt lat="51.9131649099" lon="-1.9901117496"><ele>206.31</ele><time>2023-12-06T11:57:19Z</time></trkpt><trkpt lat="51.9129973557" lon="-1.9898053911"><ele>205.30</ele><time>2023-12-06T11:57:45Z</time></trkpt><trkpt lat="51.9128325675" lon="-1.9895197358"><ele>203.90</ele><time>2023-12-06T11:58:09Z</time></trkpt><trkpt lat="51.9126798492" lon="-1.9892356731"><ele>203.05</ele><time>2023-12-06T11:58:33Z</time></trkpt><trkpt lat="51.9125478342" lon="-1.9890178274"><ele>202.05</ele><time>2023-12-06T11:58:52Z</time></trkpt><trkpt lat="51.9124025758" lon="-1.9887610059"><ele>201.00</ele><time>2023-12-06T11:59:13Z</time></trkpt><trkpt lat="51.9122703094" lon="-1.9885073695"><ele>199.66</ele><time>2023-12-06T11:59:34Z</time></trkpt><trkpt lat="51.9121341035" lon="-1.9882535655"><ele>198.37</ele><time>2023-12-06T11:59:56Z</time></trkpt><trkpt lat="51.9119903538" lon="-1.9879930560"><ele>197.24</ele><time>2023-12-06T12:00:18Z</time></trkpt><trkpt lat="51.9118692353" lon="-1.9877859391"><ele>196.17</ele><time>2023-12-06T12:00:37Z</time></trkpt><trkpt lat="51.9118477777" lon="-1.9876304548"><ele>195.34</ele><time>2023-12-06T12:00:54Z</time></trkpt><trkpt lat="51.9117753580" lon="-1.9875306264"><ele>194.97</ele><time>2023-12-06T12:01:12Z</time></trkpt><trkpt lat="51.9116341230" lon="-1.9874177221"><ele>194.60</ele><time>2023-12-06T12:01:28Z</time></trkpt><trkpt lat="51.9114586059" lon="-1.9872811809"><ele>194.55</ele><time>2023-12-06T12:01:46Z</time></trkpt><trkpt lat="51.9113082346" lon="-1.9871541951"><ele>194.18</ele><time>2023-12-06T12:02:05Z</time></trkpt><trkpt lat="51.9112128485" lon="-1.9870325737"><ele>193.84</ele><time>2023-12-06T12:02:20Z</time></trkpt><trkpt lat="51.9111855235" lon="-1.9870091043"><ele>193.80</ele><time>2023-12-06T12:02:38Z</time></trkpt><trkpt lat="51.9112379104" lon="-1.9870424643"><ele>193.86</ele><time>2023-12-06T12:02:56Z</time></trkpt><trkpt lat="51.9111916423" lon="-1.9870158099"><ele>193.97</ele><time>2023-12-06T12:03:14Z</time></trkpt><trkpt lat="51.9111669157" lon="-1.9869721401"><ele>193.97</ele><time>2023-12-06T12:03:34Z</time></trkpt><trkpt lat="51.9111626409" lon="-1.9869785104"><ele>193.97</ele><time>2023-12-06T12:03:41Z</time></trkpt></trkseg></trk></gpx>